Time;durP1;ratioP1;P1;durP2;ratioP2;P2;SDS_P1;SDS_P2;PMS_P1;PMS_P2;Temp;Humidity;BMP_temperature;BMP_pressure;BME280_temperature;BME280_humidity;BME280_pressure;Samples;Min_cycle;Max_cycle;Signal;HPM_P1;HPM_P2
2021/09/30 00:01:44;;;;;;;0.82;0.82;;;;;;;;;;4893936;29;20060;-79
2021/09/30 00:04:12;;;;;;;0.63;0.63;;;;;;;;;;4902842;29;20064;-79
2021/09/30 00:06:41;;;;;;;1.95;0.60;;;;;;;;;;4914477;29;20048;-79
2021/09/30 00:09:11;;;;;;;1.30;1.20;;;;;;;;;;4916053;29;20052;-79
2021/09/30 00:11:43;;;;;;;1.15;1.15;;;;;;;;;;4933272;29;20043;-82
2021/09/30 00:46:57;;;;;;;1.90;0.82;;;;;;;;;;4913972;29;20694;-81
2021/09/30 00:52:02;;;;;;;1.15;0.80;;;;;;;;;;4915797;29;20402;-82
2021/09/30 02:58:55;;;;;;;0.90;0.90;;;;;;;;;;4858517;29;20053;-82
2021/09/30 03:01:25;;;;;;;0.82;0.82;;;;;;;;;;4858517;29;20053;-82
2021/09/30 03:03:59;;;;;;;1.05;0.77;;;;;;;;;;4881269;29;20060;-82
2021/09/30 03:06:27;;;;;;;3.55;1.23;;;;;;;;;;4893009;29;20067;-81
2021/09/30 03:08:57;;;;;;;1.35;0.85;;;;;;;;;;4893239;29;20731;-82
2021/09/30 03:11:27;;;;;;;9.07;4.70;;;;;;;;;;4877387;29;20059;-81
2021/09/30 03:13:56;;;;;;;0.90;0.82;;;;;;;;;;4893115;29;20071;-82
2021/09/30 03:16:38;;;;;;;1.02;0.65;;;;;;;;;;4893078;29;20057;-81
2021/09/30 03:24:49;;;;;;;1.67;0.73;;;;;;;;;;4885177;28;20525;-81
2021/09/30 03:27:19;;;;;;;0.70;0.70;;;;;;;;;;4877640;29;20418;-81
2021/09/30 03:29:48;;;;;;;0.75;0.75;;;;;;;;;;4892696;29;20048;-81
2021/09/30 03:32:17;;;;;;;0.98;0.98;;;;;;;;;;4894558;29;20052;-90
2021/09/30 03:35:09;;;;;;;0.63;0.63;;;;;;;;;;4877102;29;20060;-81
2021/09/30 03:37:37;;;;;;;0.88;0.80;;;;;;;;;;4874428;29;20049;-81
2021/09/30 03:40:06;;;;;;;7.30;1.27;;;;;;;;;;4874421;29;20076;-81
2021/09/30 03:42:34;;;;;;;3.92;0.88;;;;;;;;;;4892726;29;20061;-81
2021/09/30 03:45:07;;;;;;;0.90;0.90;;;;;;;;;;4862586;29;20048;-81
2021/09/30 03:47:39;;;;;;;1.70;1.17;;;;;;;;;;4893082;29;20060;-81
2021/09/30 03:50:20;;;;;;;0.88;0.88;;;;;;;;;;4892445;29;20487;-81
2021/09/30 03:53:05;;;;;;;1.30;0.77;;;;;;;;;;4908720;29;20044;-81
2021/09/30 04:00:35;;;;;;;1.30;1.17;;;;;;;;;;4895579;29;20435;-81
2021/09/30 04:03:04;;;;;;;4.53;1.67;;;;;;;;;;4880998;29;20075;-81
2021/09/30 04:05:35;;;;;;;;;;;;;;;;;;4877189;29;20404;-81
2021/09/30 04:08:03;;;;;;;2.17;1.25;;;;;;;;;;4894824;29;20304;-81
2021/09/30 04:10:32;;;;;;;1.23;0.73;;;;;;;;;;4913984;29;20052;-81
2021/09/30 04:13:00;;;;;;;1.33;0.63;;;;;;;;;;4899342;29;20596;-81
2021/09/30 04:15:29;;;;;;;1.60;1.52;;;;;;;;;;4893194;29;20676;-81
2021/09/30 04:17:58;;;;;;;1.38;0.90;;;;;;;;;;4895617;29;20422;-81
2021/09/30 04:20:30;;;;;;;1.23;1.00;;;;;;;;;;4892021;29;20036;-81
2021/09/30 04:23:06;;;;;;;0.82;0.80;;;;;;;;;;4894986;29;20432;-81
2021/09/30 04:25:38;;;;;;;0.80;0.80;;;;;;;;;;4889639;29;20049;-81
2021/09/30 04:28:06;;;;;;;1.02;1.02;;;;;;;;;;4877500;29;20060;-81
2021/09/30 04:30:37;;;;;;;2.28;0.80;;;;;;;;;;4876593;29;20056;-80
2021/09/30 04:33:20;;;;;;;1.30;1.20;;;;;;;;;;4861185;29;20060;-81
2021/09/30 04:35:51;;;;;;;2.35;1.52;;;;;;;;;;4875484;29;20059;-81
2021/09/30 04:38:19;;;;;;;1.85;0.85;;;;;;;;;;4896406;29;20517;-81
2021/09/30 04:40:47;;;;;;;1.27;1.17;;;;;;;;;;4894541;29;20037;-82
2021/09/30 04:43:16;;;;;;;0.88;0.80;;;;;;;;;;4895617;29;20509;-79
2021/09/30 04:45:45;;;;;;;1.13;0.73;;;;;;;;;;4910571;29;20049;-83
2021/09/30 04:48:18;;;;;;;1.00;1.00;;;;;;;;;;4895312;29;20055;-81
2021/09/30 04:50:57;;;;;;;0.70;0.70;;;;;;;;;;4894297;29;20083;-81
2021/09/30 04:53:26;;;;;;;0.90;0.90;;;;;;;;;;4894641;29;20045;-82
2021/09/30 04:55:54;;;;;;;0.88;0.80;;;;;;;;;;4891296;29;20434;-81
2021/09/30 04:58:22;;;;;;;7.25;2.90;;;;;;;;;;4895004;29;20049;-82
2021/09/30 05:00:51;;;;;;;0.77;0.70;;;;;;;;;;4894454;29;20379;-82
2021/09/30 05:03:20;;;;;;;0.75;0.75;;;;;;;;;;4895391;29;20052;-81
2021/09/30 05:05:48;;;;;;;0.70;0.70;;;;;;;;;;4895997;29;20497;-81
2021/09/30 05:08:17;;;;;;;5.65;2.33;;;;;;;;;;4879645;29;20049;-82
2021/09/30 05:10:46;;;;;;;2.08;1.35;;;;;;;;;;4895451;29;20052;-82
2021/09/30 05:13:23;;;;;;;1.00;0.77;;;;;;;;;;4894589;29;20059;-82
2021/09/30 05:15:52;;;;;;;7.78;1.20;;;;;;;;;;4895244;29;20067;-81
2021/09/30 05:18:47;;;;;;;3.70;1.65;;;;;;;;;;4904121;29;20069;-82
2021/09/30 05:21:15;;;;;;;1.35;0.90;;;;;;;;;;4875569;29;20411;-82
2021/09/30 05:23:43;;;;;;;1.17;0.90;;;;;;;;;;4876149;29;20455;-82
2021/09/30 05:26:11;;;;;;;1.15;1.00;;;;;;;;;;4875139;29;20056;-81
2021/09/30 05:28:40;;;;;;;0.77;0.45;;;;;;;;;;4875844;29;20076;-81
2021/09/30 05:31:08;;;;;;;1.48;0.90;;;;;;;;;;4879401;29;20044;-81
2021/09/30 05:34:05;;;;;;;0.90;0.85;;;;;;;;;;4894987;29;20061;-82
2021/09/30 05:36:33;;;;;;;0.60;0.60;;;;;;;;;;4875476;29;20053;-82
2021/09/30 05:39:02;;;;;;;0.70;0.70;;;;;;;;;;4862555;29;20049;-94
2021/09/30 05:41:32;;;;;;;1.00;0.98;;;;;;;;;;4865208;29;20052;-91
2021/09/30 05:44:09;;;;;;;2.40;1.13;;;;;;;;;;4863022;29;20053;-82
2021/09/30 05:46:45;;;;;;;0.93;0.93;;;;;;;;;;4875200;29;20072;-82
2021/09/30 05:49:14;;;;;;;2.17;0.80;;;;;;;;;;4875494;29;20602;-82
2021/09/30 05:51:44;;;;;;;0.80;0.80;;;;;;;;;;4875654;29;20048;-82
2021/09/30 05:54:33;;;;;;;0.98;0.57;;;;;;;;;;4875235;29;20037;-82
2021/09/30 05:57:14;;;;;;;0.93;0.90;;;;;;;;;;4874901;29;20376;-82
2021/09/30 05:59:42;;;;;;;0.75;0.75;;;;;;;;;;4875709;29;20060;-82
2021/09/30 06:10:24;;;;;;;0.60;0.60;;;;;;;;;;4892943;29;20570;-82
2021/09/30 06:12:59;;;;;;;1.65;1.55;;;;;;;;;;4893910;29;20056;-82
2021/09/30 06:15:36;;;;;;;1.42;1.13;;;;;;;;;;4893831;29;20056;-81
2021/09/30 06:18:07;;;;;;;0.88;0.70;;;;;;;;;;4910721;29;20043;-83
2021/09/30 06:20:38;;;;;;;7.45;2.58;;;;;;;;;;4924894;28;20047;-85
2021/09/30 06:23:10;;;;;;;4.43;1.20;;;;;;;;;;4917243;29;20393;-85
2021/09/30 06:25:41;;;;;;;0.67;0.67;;;;;;;;;;4906559;29;20406;-85
2021/09/30 06:28:10;;;;;;;0.98;0.98;;;;;;;;;;4881665;29;20303;-85
2021/09/30 06:30:41;;;;;;;6.57;3.67;;;;;;;;;;4863344;29;20517;-85
2021/09/30 06:33:30;;;;;;;15.93;5.22;;;;;;;;;;4889510;29;20053;-85
2021/09/30 06:36:10;;;;;;;9.15;6.82;;;;;;;;;;4877347;29;20049;-84
2021/09/30 06:38:41;;;;;;;7.15;4.97;;;;;;;;;;4873461;29;20486;-85
2021/09/30 06:41:12;;;;;;;3.08;2.78;;;;;;;;;;4895669;29;20055;-84
2021/09/30 06:43:41;;;;;;;3.17;2.88;;;;;;;;;;4897077;29;20051;-84
2021/09/30 06:46:46;;;;;;;1.80;1.70;;;;;;;;;;4871297;29;20052;-84
2021/09/30 06:49:35;;;;;;;1.02;1.02;;;;;;;;;;4863631;29;20037;-92
2021/09/30 06:52:32;;;;;;;1.63;1.52;;;;;;;;;;4894362;29;20036;-84
2021/09/30 06:55:48;;;;;;;;;;;;;;;;;;;;;
2021/09/30 06:59:34;;;;;;;1.50;1.27;;;;;;;;;;4888320;29;20494;-84
2021/09/30 08:54:00;;;;;;;1.55;1.33;;;;;;;;;;4763431;29;20094;-84
2021/09/30 08:56:28;;;;;;;1.58;1.48;;;;;;;;;;4842198;29;20069;-87
2021/09/30 08:58:56;;;;;;;1.88;1.45;;;;;;;;;;4905685;29;20059;-87
2021/09/30 09:01:24;;;;;;;1.42;1.33;;;;;;;;;;4920040;29;20419;-86
2021/09/30 09:22:02;;;;;;;1.13;1.00;;;;;;;;;;4720536;29;20044;-84
2021/09/30 09:26:03;;;;;;;2.25;0.60;;;;;;;;;;4718848;30;20052;-84
2021/09/30 09:42:14;;;;;;;2.38;1.02;;;;;;;;;;4747646;30;20824;-85
2021/09/30 09:45:47;;;;;;;;;;;;;;;;;;;;;
2021/09/30 09:52:42;;;;;;;4.68;0.90;;;;;;;;;;4782368;29;20445;-85
2021/09/30 10:05:27;;;;;;;;;;;;;;;;;;;;;
2021/09/30 10:08:51;;;;;;;1.80;1.70;;;;;;;;;;4824896;29;20069;-85
2021/09/30 10:11:33;;;;;;;4.43;1.20;;;;;;;;;;4895102;29;20055;-84
2021/09/30 10:14:09;;;;;;;1.75;1.10;;;;;;;;;;4895689;29;20048;-85
2021/09/30 10:16:47;;;;;;;6.43;0.95;;;;;;;;;;4879798;29;20056;-83
2021/09/30 10:20:28;;;;;;;1.25;1.15;;;;;;;;;;4877584;29;20512;-85
2021/09/30 10:23:40;;;;;;;2.40;2.20;;;;;;;;;;4847175;29;20060;-85
2021/09/30 10:26:40;;;;;;;;;;;;;;;;;;;;;
2021/09/30 10:38:19;;;;;;;2.10;0.77;;;;;;;;;;4924900;28;20048;-85
2021/09/30 10:41:13;;;;;;;5.28;1.15;;;;;;;;;;4929432;29;20043;-89
2021/09/30 10:43:45;;;;;;;4.05;1.08;;;;;;;;;;4952124;29;20167;-89
2021/09/30 10:46:26;;;;;;;1.85;0.60;;;;;;;;;;4935882;28;20046;-90
2021/09/30 10:48:55;;;;;;;2.47;0.52;;;;;;;;;;4937226;28;20051;-86
2021/09/30 10:51:23;;;;;;;1.33;0.43;;;;;;;;;;4952962;28;20058;-88
2021/09/30 10:53:54;;;;;;;2.60;0.82;;;;;;;;;;4951879;28;20508;-89
2021/09/30 10:56:31;;;;;;;2.38;1.08;;;;;;;;;;4922701;28;20050;-87
2021/09/30 10:59:00;;;;;;;3.92;1.50;;;;;;;;;;4976466;28;20046;-88
2021/09/30 11:01:28;;;;;;;0.77;0.77;;;;;;;;;;4968097;28;20046;-87
2021/09/30 11:03:58;;;;;;;0.90;0.90;;;;;;;;;;4966968;28;20062;-94
2021/09/30 11:06:26;;;;;;;1.23;0.85;;;;;;;;;;4995252;23;20039;-88
2021/09/30 11:09:17;;;;;;;1.83;1.05;;;;;;;;;;4940861;28;20052;-87
2021/09/30 11:11:47;;;;;;;3.30;1.00;;;;;;;;;;4963733;28;20058;-90
2021/09/30 11:14:21;;;;;;;1.75;0.80;;;;;;;;;;4918336;29;20180;-92
2021/09/30 11:16:51;;;;;;;0.90;0.90;;;;;;;;;;4903643;28;20567;-92
2021/09/30 11:19:26;;;;;;;2.05;1.00;;;;;;;;;;4926677;29;20052;-91
2021/09/30 11:21:59;;;;;;;1.70;0.75;;;;;;;;;;4899811;29;20051;-93
2021/09/30 11:24:47;;;;;;;3.85;1.52;;;;;;;;;;4929286;28;20055;-92
2021/09/30 11:27:19;;;;;;;1.50;0.70;;;;;;;;;;4936189;29;20051;-88
2021/09/30 11:29:47;;;;;;;;;;;;;;;;;;4934571;28;20047;-82
2021/09/30 11:32:16;;;;;;;0.60;0.60;;;;;;;;;;4951196;28;19933;-82
2021/09/30 11:34:50;;;;;;;1.25;0.52;;;;;;;;;;4956779;28;20046;-82
2021/09/30 11:37:21;;;;;;;0.55;0.50;;;;;;;;;;4986858;28;20042;-82
2021/09/30 11:39:49;;;;;;;1.75;1.38;;;;;;;;;;4987304;28;20582;-82
2021/09/30 11:42:18;;;;;;;1.60;1.50;;;;;;;;;;4971507;28;20051;-82
2021/09/30 11:45:00;;;;;;;1.50;0.60;;;;;;;;;;4971397;28;20054;-84
2021/09/30 11:47:30;;;;;;;2.08;0.70;;;;;;;;;;4969321;28;20412;-83
2021/09/30 11:49:58;;;;;;;1.05;0.80;;;;;;;;;;4952917;28;20059;-83
2021/09/30 11:52:26;;;;;;;0.70;0.60;;;;;;;;;;4948647;28;20401;-82
2021/09/30 11:54:54;;;;;;;1.88;0.70;;;;;;;;;;4947229;28;20059;-82
2021/09/30 11:57:27;;;;;;;1.15;0.57;;;;;;;;;;4950019;28;20047;-84
2021/09/30 12:00:07;;;;;;;2.70;1.92;;;;;;;;;;4950428;28;20058;-83
2021/09/30 12:03:02;;;;;;;0.93;0.57;;;;;;;;;;4952422;28;20516;-83
2021/09/30 12:05:30;;;;;;;;;;;;;;;;;;4947644;28;20473;-83
2021/09/30 12:07:59;;;;;;;1.75;0.50;;;;;;;;;;4965182;28;19933;-82
2021/09/30 12:10:28;;;;;;;4.55;0.80;;;;;;;;;;4971742;28;20042;-84
2021/09/30 12:12:56;;;;;;;0.88;0.70;;;;;;;;;;4953658;28;20066;-83
2021/09/30 12:15:25;;;;;;;1.30;0.95;;;;;;;;;;4954726;28;20043;-83
2021/09/30 12:17:53;;;;;;;0.60;0.60;;;;;;;;;;4953924;28;20523;-84
2021/09/30 12:20:21;;;;;;;0.85;0.85;;;;;;;;;;4970938;28;20065;-84
2021/09/30 12:22:53;;;;;;;1.15;1.05;;;;;;;;;;4944911;28;20055;-85
2021/09/30 12:25:25;;;;;;;0.80;0.80;;;;;;;;;;4968950;28;20054;-85
2021/09/30 12:27:55;;;;;;;0.70;0.70;;;;;;;;;;4954056;28;20047;-84
2021/09/30 12:30:24;;;;;;;1.80;0.93;;;;;;;;;;4952999;28;20057;-84
2021/09/30 12:32:56;;;;;;;1.15;0.70;;;;;;;;;;4969553;28;20054;-86
2021/09/30 12:35:29;;;;;;;3.65;1.00;;;;;;;;;;4944963;28;20372;-84
2021/09/30 12:37:58;;;;;;;12.10;0.93;;;;;;;;;;4972894;28;20065;-85
2021/09/30 12:40:27;;;;;;;2.63;1.25;;;;;;;;;;4967752;28;20484;-84
2021/09/30 12:43:09;;;;;;;42.13;3.17;;;;;;;;;;4952871;28;20479;-85
2021/09/30 12:45:59;;;;;;;1.17;1.17;;;;;;;;;;4952053;28;20051;-85
2021/09/30 12:48:29;;;;;;;0.80;0.65;;;;;;;;;;4917847;29;20055;-85
2021/09/30 12:50:59;;;;;;;0.50;0.50;;;;;;;;;;4949691;29;20054;-85
2021/09/30 12:53:30;;;;;;;0.70;0.70;;;;;;;;;;4950964;29;20043;-86
2021/09/30 12:56:06;;;;;;;2.58;1.17;;;;;;;;;;4934661;28;20330;-85
2021/09/30 12:58:35;;;;;;;4.60;0.50;;;;;;;;;;4969888;28;20054;-84
2021/09/30 13:01:22;;;;;;;0.63;0.52;;;;;;;;;;4968253;28;20050;-84
2021/09/30 13:04:03;;;;;;;2.95;0.93;;;;;;;;;;4970727;28;20051;-85
2021/09/30 13:06:31;;;;;;;1.17;0.52;;;;;;;;;;4969978;28;20043;-84
2021/09/30 13:08:59;;;;;;;5.68;1.70;;;;;;;;;;4970255;28;20081;-84
2021/09/30 13:11:32;;;;;;;0.85;0.82;;;;;;;;;;4950826;28;20055;-84
2021/09/30 13:14:13;;;;;;;4.10;0.77;;;;;;;;;;4952672;28;20055;-84
2021/09/30 13:16:45;;;;;;;2.55;0.93;;;;;;;;;;4952193;28;20059;-84
2021/09/30 13:19:13;;;;;;;0.88;0.88;;;;;;;;;;4936240;28;20053;-84
2021/09/30 13:22:01;;;;;;;0.75;0.63;;;;;;;;;;4969472;28;20054;-84
2021/09/30 13:24:30;;;;;;;1.30;0.95;;;;;;;;;;4969909;28;20065;-84
2021/09/30 13:26:58;;;;;;;0.93;0.90;;;;;;;;;;4968309;28;20053;-84
2021/09/30 13:29:42;;;;;;;0.88;0.60;;;;;;;;;;4952605;28;20050;-84
2021/09/30 13:32:10;;;;;;;1.10;0.70;;;;;;;;;;4952593;28;20077;-84
2021/09/30 13:34:38;;;;;;;1.00;0.82;;;;;;;;;;4953271;28;20420;-84
2021/09/30 13:37:06;;;;;;;0.73;0.60;;;;;;;;;;4969180;28;20495;-84
2021/09/30 13:39:34;;;;;;;4.32;0.82;;;;;;;;;;4970349;28;20046;-84
2021/09/30 13:42:03;;;;;;;0.50;0.50;;;;;;;;;;4949407;28;20049;-85
2021/09/30 13:44:31;;;;;;;1.80;0.60;;;;;;;;;;4952190;28;20053;-84
2021/09/30 13:47:00;;;;;;;1.25;1.10;;;;;;;;;;4936661;28;20047;-83
2021/09/30 13:49:28;;;;;;;2.22;0.82;;;;;;;;;;4951177;28;20090;-83
2021/09/30 13:51:56;;;;;;;1.27;1.00;;;;;;;;;;4968897;28;20396;-83
2021/09/30 13:54:24;;;;;;;0.50;0.50;;;;;;;;;;4969328;28;20058;-84
2021/09/30 13:56:52;;;;;;;0.60;0.60;;;;;;;;;;4950190;28;20053;-84
2021/09/30 13:59:20;;;;;;;1.80;1.05;;;;;;;;;;4952818;28;20046;-83
2021/09/30 14:02:08;;;;;;;1.85;1.00;;;;;;;;;;4968893;28;20047;-84
2021/09/30 14:04:36;;;;;;;0.57;0.57;;;;;;;;;;4951486;28;20051;-84
2021/09/30 14:07:08;;;;;;;0.60;0.52;;;;;;;;;;4969665;28;20069;-83
2021/09/30 14:09:36;;;;;;;;;;;;;;;;;;4935325;28;20062;-83
2021/09/30 14:12:04;;;;;;;2.40;1.40;;;;;;;;;;4950738;28;19933;-83
2021/09/30 14:14:33;;;;;;;2.00;0.63;;;;;;;;;;4935755;28;20519;-83
2021/09/30 14:17:01;;;;;;;3.90;0.52;;;;;;;;;;4935665;28;20055;-83
2021/09/30 14:19:29;;;;;;;0.40;0.40;;;;;;;;;;4936474;28;20058;-83
2021/09/30 14:21:58;;;;;;;0.60;0.60;;;;;;;;;;4968475;28;20074;-83
2021/09/30 14:24:30;;;;;;;0.50;0.50;;;;;;;;;;4935311;28;20061;-83
2021/09/30 14:27:00;;;;;;;0.68;0.68;;;;;;;;;;4967358;28;20054;-83
2021/09/30 14:29:28;;;;;;;1.25;0.65;;;;;;;;;;4968817;28;20046;-83
2021/09/30 14:31:57;;;;;;;3.17;0.80;;;;;;;;;;4969302;28;20050;-83
2021/09/30 14:34:28;;;;;;;0.63;0.63;;;;;;;;;;4955064;28;20038;-83
2021/09/30 14:36:56;;;;;;;6.38;1.33;;;;;;;;;;4954768;28;20046;-83
2021/09/30 14:39:24;;;;;;;0.57;0.57;;;;;;;;;;4944439;28;20062;-83
2021/09/30 14:41:52;;;;;;;0.90;0.90;;;;;;;;;;4966810;28;20043;-83
2021/09/30 14:44:24;;;;;;;0.82;0.73;;;;;;;;;;4952811;28;20054;-83
2021/09/30 14:46:54;;;;;;;0.95;0.95;;;;;;;;;;4951893;28;20102;-83
2021/09/30 14:49:22;;;;;;;1.13;1.02;;;;;;;;;;4968911;28;20055;-83
2021/09/30 14:51:53;;;;;;;0.90;0.55;;;;;;;;;;4974640;28;20050;-83
2021/09/30 14:54:21;;;;;;;0.55;0.50;;;;;;;;;;4954436;28;20515;-83
2021/09/30 14:56:49;;;;;;;2.35;0.60;;;;;;;;;;4986747;28;20229;-83
2021/09/30 14:59:17;;;;;;;0.73;0.73;;;;;;;;;;4971470;28;20045;-83
2021/09/30 15:01:46;;;;;;;3.13;0.65;;;;;;;;;;4970416;28;20054;-83
2021/09/30 15:04:14;;;;;;;0.70;0.70;;;;;;;;;;4988884;28;20058;-83
2021/09/30 15:06:42;;;;;;;0.63;0.63;;;;;;;;;;4970372;28;20046;-83
2021/09/30 15:09:10;;;;;;;1.33;1.23;;;;;;;;;;4978783;28;20167;-83
2021/09/30 15:11:38;;;;;;;1.33;0.70;;;;;;;;;;4967439;28;20070;-83
2021/09/30 15:14:07;;;;;;;1.33;0.70;;;;;;;;;;4951794;28;20314;-83
2021/09/30 15:16:39;;;;;;;0.70;0.65;;;;;;;;;;4951393;28;20055;-83
2021/09/30 15:19:15;;;;;;;3.30;0.95;;;;;;;;;;4971530;28;20399;-80
2021/09/30 15:21:43;;;;;;;3.38;2.17;;;;;;;;;;4969113;28;20066;-81
2021/09/30 15:24:14;;;;;;;1.10;0.82;;;;;;;;;;4988727;28;20050;-80
2021/09/30 15:26:43;;;;;;;0.60;0.60;;;;;;;;;;4986468;28;20435;-80
2021/09/30 15:29:12;;;;;;;0.55;0.55;;;;;;;;;;4987896;28;20079;-80
2021/09/30 15:31:42;;;;;;;0.90;0.88;;;;;;;;;;4987908;28;20057;-80
2021/09/30 15:34:11;;;;;;;0.85;0.77;;;;;;;;;;4988298;28;20422;-80
2021/09/30 15:36:44;;;;;;;0.60;0.60;;;;;;;;;;5009061;28;20053;-80
2021/09/30 15:39:12;;;;;;;2.58;0.88;;;;;;;;;;5011896;28;20053;-80
2021/09/30 15:41:40;;;;;;;1.52;1.40;;;;;;;;;;4992188;28;20038;-80
2021/09/30 15:44:08;;;;;;;1.45;1.08;;;;;;;;;;5012315;28;20053;-80
2021/09/30 15:46:36;;;;;;;0.95;0.75;;;;;;;;;;5012131;28;20050;-82
2021/09/30 15:49:04;;;;;;;0.57;0.57;;;;;;;;;;5007077;28;20046;-80
2021/09/30 15:51:32;;;;;;;0.50;0.50;;;;;;;;;;4992636;28;20392;-80
2021/09/30 15:54:00;;;;;;;3.25;1.52;;;;;;;;;;4992625;28;20065;-81
2021/09/30 15:56:28;;;;;;;2.00;1.17;;;;;;;;;;4974682;28;20046;-81
2021/09/30 15:58:56;;;;;;;3.90;1.05;;;;;;;;;;4993567;28;20057;-81
2021/09/30 16:01:29;;;;;;;0.68;0.68;;;;;;;;;;4992920;28;20058;-81
2021/09/30 16:03:57;;;;;;;3.15;0.70;;;;;;;;;;4975451;28;20522;-81
2021/09/30 16:06:25;;;;;;;0.90;0.90;;;;;;;;;;4974622;28;20050;-80
2021/09/30 16:08:53;;;;;;;0.70;0.70;;;;;;;;;;4991146;28;20060;-80
2021/09/30 16:11:21;;;;;;;3.15;0.93;;;;;;;;;;4989520;28;20472;-80
2021/09/30 16:13:49;;;;;;;0.98;0.70;;;;;;;;;;4992662;28;20046;-81
2021/09/30 16:16:17;;;;;;;1.73;0.60;;;;;;;;;;4993408;28;20169;-79
2021/09/30 16:18:45;;;;;;;2.97;1.48;;;;;;;;;;4982965;28;20053;-81
2021/09/30 16:21:14;;;;;;;3.00;0.95;;;;;;;;;;4973211;28;20437;-79
2021/09/30 16:23:42;;;;;;;5.13;1.05;;;;;;;;;;4973837;28;20058;-80
2021/09/30 16:26:10;;;;;;;1.63;1.42;;;;;;;;;;4972171;28;20058;-80
2021/09/30 16:28:38;;;;;;;0.93;0.80;;;;;;;;;;4939025;28;20054;-80
2021/09/30 16:31:06;;;;;;;4.50;1.15;;;;;;;;;;4955917;28;20054;-80
2021/09/30 16:33:36;;;;;;;9.15;1.95;;;;;;;;;;4955430;28;20047;-80
2021/09/30 16:36:04;;;;;;;1.45;1.35;;;;;;;;;;5004688;28;20045;-80
2021/09/30 16:38:32;;;;;;;11.35;1.75;;;;;;;;;;5011588;28;20045;-80
2021/09/30 16:41:00;;;;;;;5.85;3.38;;;;;;;;;;5002930;28;20050;-80
2021/09/30 16:43:28;;;;;;;0.98;0.60;;;;;;;;;;4992166;28;20050;-80
2021/09/30 16:45:58;;;;;;;1.48;1.00;;;;;;;;;;4980882;28;20046;-87
2021/09/30 16:48:30;;;;;;;1.40;0.77;;;;;;;;;;4939374;28;20505;-80
2021/09/30 16:50:58;;;;;;;0.70;0.70;;;;;;;;;;4970431;28;20404;-81
2021/09/30 16:53:29;;;;;;;1.92;1.08;;;;;;;;;;4970265;28;20428;-80
2021/09/30 16:55:57;;;;;;;2.10;0.80;;;;;;;;;;4951725;28;20046;-80
2021/09/30 16:58:25;;;;;;;2.63;1.02;;;;;;;;;;4987790;28;20483;-80
2021/09/30 17:00:53;;;;;;;0.80;0.80;;;;;;;;;;4987936;28;20487;-80
2021/09/30 17:03:21;;;;;;;1.08;0.90;;;;;;;;;;4985867;28;20050;-80
2021/09/30 17:05:49;;;;;;;0.60;0.60;;;;;;;;;;4991503;28;20051;-80
2021/09/30 17:08:17;;;;;;;0.98;0.98;;;;;;;;;;4977668;28;20254;-80
2021/09/30 17:10:45;;;;;;;0.80;0.80;;;;;;;;;;4971872;28;20065;-80
2021/09/30 17:13:13;;;;;;;2.40;0.98;;;;;;;;;;4972416;28;20416;-80
2021/09/30 17:15:41;;;;;;;2.38;0.82;;;;;;;;;;4955006;28;20050;-80
2021/09/30 17:18:09;;;;;;;6.95;1.33;;;;;;;;;;4972148;28;20051;-80
2021/09/30 17:20:37;;;;;;;0.68;0.68;;;;;;;;;;4970523;28;20050;-80
2021/09/30 17:23:05;;;;;;;0.73;0.73;;;;;;;;;;4974669;28;20054;-80
2021/09/30 17:25:33;;;;;;;0.80;0.80;;;;;;;;;;4990700;28;20054;-80
2021/09/30 17:28:01;;;;;;;1.40;1.30;;;;;;;;;;4992110;28;20089;-79
2021/09/30 17:30:33;;;;;;;1.25;0.70;;;;;;;;;;4973704;28;20057;-80
2021/09/30 17:33:01;;;;;;;0.80;0.80;;;;;;;;;;4991303;28;20042;-80
2021/09/30 17:35:29;;;;;;;1.02;0.93;;;;;;;;;;5002665;28;20121;-80
2021/09/30 17:37:58;;;;;;;0.70;0.70;;;;;;;;;;4993174;28;20045;-80
2021/09/30 17:40:26;;;;;;;0.68;0.68;;;;;;;;;;4992831;28;20261;-78
2021/09/30 17:42:55;;;;;;;2.40;0.88;;;;;;;;;;4997671;28;20054;-79
2021/09/30 17:45:24;;;;;;;0.80;0.80;;;;;;;;;;4989970;28;20054;-80
2021/09/30 17:47:53;;;;;;;1.08;0.70;;;;;;;;;;4990973;28;20770;-80
2021/09/30 17:50:24;;;;;;;0.80;0.80;;;;;;;;;;4990191;28;20404;-80
2021/09/30 17:52:56;;;;;;;1.83;1.73;;;;;;;;;;4967903;28;20046;-80
2021/09/30 17:55:27;;;;;;;0.73;0.70;;;;;;;;;;4988712;28;20519;-80
2021/09/30 17:57:59;;;;;;;1.55;1.45;;;;;;;;;;4981393;28;20042;-80
2021/09/30 18:00:33;;;;;;;0.90;0.90;;;;;;;;;;4989166;28;20065;-80
2021/09/30 18:03:05;;;;;;;3.40;0.98;;;;;;;;;;4990755;28;20376;-80
2021/09/30 18:05:35;;;;;;;1.23;1.00;;;;;;;;;;4970564;28;20043;-80
2021/09/30 18:08:05;;;;;;;1.02;1.02;;;;;;;;;;4971178;28;20066;-79
2021/09/30 18:10:35;;;;;;;;;;;;;;;;;;4970318;28;20062;-80
2021/09/30 18:13:08;;;;;;;2.60;1.20;;;;;;;;;;4971155;28;19972;-79
2021/09/30 18:15:38;;;;;;;0.90;0.90;;;;;;;;;;4970897;28;20492;-79
2021/09/30 18:18:06;;;;;;;2.90;1.10;;;;;;;;;;4970539;28;20051;-79
2021/09/30 18:20:41;;;;;;;2.28;0.85;;;;;;;;;;4977998;28;20059;-79
2021/09/30 18:23:17;;;;;;;1.17;1.10;;;;;;;;;;4978378;28;20053;-80
2021/09/30 18:25:50;;;;;;;1.20;1.10;;;;;;;;;;4980348;28;20047;-80
2021/09/30 18:28:21;;;;;;;1.20;1.13;;;;;;;;;;4979818;28;20050;-80
2021/09/30 18:30:53;;;;;;;2.33;1.58;;;;;;;;;;4951904;28;20051;-80
2021/09/30 18:33:24;;;;;;;0.70;0.70;;;;;;;;;;4965810;28;20042;-80
2021/09/30 18:35:52;;;;;;;1.48;1.02;;;;;;;;;;4971754;28;20050;-79
2021/09/30 18:38:20;;;;;;;1.15;1.10;;;;;;;;;;4957068;28;20054;-80
2021/09/30 18:40:48;;;;;;;1.25;1.15;;;;;;;;;;4969366;28;20046;-80
2021/09/30 18:43:16;;;;;;;5.75;3.63;;;;;;;;;;4951631;28;20476;-80
2021/09/30 18:45:44;;;;;;;1.00;0.90;;;;;;;;;;4963814;28;20047;-79
2021/09/30 18:48:13;;;;;;;0.70;0.70;;;;;;;;;;4954027;28;20051;-79
2021/09/30 18:50:43;;;;;;;1.00;1.00;;;;;;;;;;4966854;28;20047;-79
2021/09/30 18:53:11;;;;;;;2.55;1.10;;;;;;;;;;4985365;28;20047;-79
2021/09/30 18:55:39;;;;;;;1.25;0.80;;;;;;;;;;4970265;28;20051;-80
2021/09/30 18:58:07;;;;;;;1.15;1.08;;;;;;;;;;4970089;28;20046;-81
2021/09/30 19:00:39;;;;;;;1.83;0.88;;;;;;;;;;4968856;28;20054;-80
2021/09/30 19:03:08;;;;;;;1.60;0.93;;;;;;;;;;4969684;28;20059;-80
2021/09/30 19:05:36;;;;;;;0.93;0.93;;;;;;;;;;4989756;28;20065;-80
2021/09/30 19:08:05;;;;;;;5.25;1.13;;;;;;;;;;4989007;28;20451;-80
2021/09/30 19:10:35;;;;;;;1.33;1.25;;;;;;;;;;4987531;28;20053;-80
2021/09/30 19:13:03;;;;;;;1.23;1.13;;;;;;;;;;4993769;28;20053;-80
2021/09/30 19:15:31;;;;;;;1.45;1.05;;;;;;;;;;4994393;28;20050;-80
2021/09/30 19:17:59;;;;;;;0.93;0.93;;;;;;;;;;4956490;28;20046;-88
2021/09/30 19:20:27;;;;;;;1.50;0.90;;;;;;;;;;4931918;28;20060;-88
2021/09/30 19:23:22;;;;;;;2.28;1.98;;;;;;;;;;4965857;28;20051;-91
2021/09/30 19:26:42;;;;;;;2.00;1.20;;;;;;;;;;4926496;28;20520;-91
2021/09/30 19:33:02;;;;;;;0.80;0.80;;;;;;;;;;4937694;28;20050;-92
2021/09/30 19:36:06;;;;;;;2.05;1.20;;;;;;;;;;4946624;28;20050;-92
2021/09/30 19:39:02;;;;;;;3.03;0.75;;;;;;;;;;4918431;28;20113;-92
2021/09/30 19:41:55;;;;;;;1.92;0.95;;;;;;;;;;4903662;29;20461;-92
2021/09/30 19:44:47;;;;;;;2.65;0.90;;;;;;;;;;4892739;29;20051;-91
2021/09/30 19:47:39;;;;;;;1.88;0.98;;;;;;;;;;4933965;29;20048;-80
2021/09/30 19:50:08;;;;;;;1.05;0.90;;;;;;;;;;4916348;29;20052;-80
2021/09/30 19:52:36;;;;;;;1.85;1.10;;;;;;;;;;4932781;29;20086;-81
2021/09/30 19:55:05;;;;;;;1.15;1.13;;;;;;;;;;4932356;29;20487;-80
2021/09/30 19:57:33;;;;;;;1.15;1.05;;;;;;;;;;4932573;29;20043;-80
2021/09/30 20:00:01;;;;;;;0.82;0.77;;;;;;;;;;4932584;28;20058;-80
2021/09/30 20:02:39;;;;;;;1.25;1.15;;;;;;;;;;4915724;29;20048;-80
2021/09/30 20:05:09;;;;;;;1.65;1.10;;;;;;;;;;4947968;28;20133;-82
2021/09/30 20:07:37;;;;;;;1.38;1.00;;;;;;;;;;4950089;28;20078;-82
2021/09/30 20:10:07;;;;;;;3.28;1.42;;;;;;;;;;4950231;28;20145;-82
2021/09/30 20:12:37;;;;;;;1.02;1.02;;;;;;;;;;4972362;28;20054;-82
2021/09/30 20:15:06;;;;;;;3.30;1.42;;;;;;;;;;4973242;28;20050;-82
2021/09/30 20:17:35;;;;;;;1.50;1.40;;;;;;;;;;4973060;28;20046;-82
2021/09/30 20:20:03;;;;;;;1.00;0.90;;;;;;;;;;4968839;28;20051;-82
2021/09/30 20:22:31;;;;;;;1.10;1.00;;;;;;;;;;4969220;28;20623;-82
2021/09/30 20:24:59;;;;;;;5.43;1.00;;;;;;;;;;4971002;28;20055;-82
2021/09/30 20:27:27;;;;;;;2.33;2.15;;;;;;;;;;4973821;28;20062;-82
2021/09/30 20:29:59;;;;;;;1.25;1.02;;;;;;;;;;4960779;28;20043;-82
2021/09/30 20:32:28;;;;;;;1.00;1.00;;;;;;;;;;4973681;28;20050;-82
2021/09/30 20:34:56;;;;;;;1.13;1.10;;;;;;;;;;4984859;28;20062;-82
2021/09/30 20:37:24;;;;;;;2.05;1.85;;;;;;;;;;4975161;28;20047;-82
2021/09/30 20:39:53;;;;;;;1.55;1.45;;;;;;;;;;4968911;28;20047;-82
2021/09/30 20:42:22;;;;;;;4.80;2.35;;;;;;;;;;4968840;28;20400;-82
2021/09/30 20:44:50;;;;;;;1.20;1.17;;;;;;;;;;4969897;28;20070;-82
2021/09/30 20:47:18;;;;;;;2.55;2.45;;;;;;;;;;4959107;28;20066;-82
2021/09/30 20:49:46;;;;;;;1.38;1.27;;;;;;;;;;4976707;28;20035;-82
2021/09/30 20:52:14;;;;;;;0.90;0.90;;;;;;;;;;4968361;28;20517;-83
2021/09/30 20:54:43;;;;;;;8.60;1.48;;;;;;;;;;4969593;28;20484;-83
2021/09/30 20:57:12;;;;;;;1.58;1.45;;;;;;;;;;4968839;28;20363;-83
2021/09/30 20:59:45;;;;;;;3.38;1.30;;;;;;;;;;4953299;28;20408;-83
2021/09/30 21:02:13;;;;;;;2.60;1.83;;;;;;;;;;4968692;28;20403;-83
2021/09/30 21:04:42;;;;;;;1.92;1.73;;;;;;;;;;4980648;28;20066;-82
2021/09/30 21:07:10;;;;;;;1.38;1.38;;;;;;;;;;4959907;28;20051;-83
2021/09/30 21:09:38;;;;;;;2.78;1.52;;;;;;;;;;4950899;28;20059;-83
2021/09/30 21:12:08;;;;;;;5.30;2.30;;;;;;;;;;4963657;28;20042;-83